New Rooks County (RCP)
Stockton, KS
Field Elevation: 1999
Lat: 39°20.80N  Long: 99°18.28W
CTAF/Unicom Freq: 122.9000
   
    
Weather Advisories
2018-05-26   19:08 Z
Altimeter 29.82" Hg
Wind 140° @ 10 KT
Gusts 14 KT
Visibility 10 SM
Temperature 36° C (97° F)
Dewpoint 11° C (52° F)
Relative Humidity 23%
Density Altitude 4,900 feet
Condensation Altitude 14,500 feet
Heat Index: 35° C (95° F)
Wind and Runways
Indicated Runway = 18
Headwind = 8 kt
Crosswind = 6 kt
History
 
 
 
More Info
All DigiWx sites map
NOAA Forecast
 
Airport IQ 5010
(FLV) Sherman Airfield
(K68) Garnett Municipal Airport
 
about DigiWx
 
FAA Disclaimer: The data displayed is for advisory purposes only and is not to be used for flight planning or operations. For official data, please call (not available) to hear the current automated AWOS voice message.
  METAR RCP 261908Z AUTO 14010G14KT VIS 10 SM 36/11 A2982